Aeroporto :
LOGIN :

Iscrizione | Disclaimer

   EN    FR    IT 

 










Sommario :    VFR   VFR Marginale   IFR   IFR Intensivo   IFR Molto Intensivo
Visibilità : 
Base nubi : 
>= 8 km
>= 3000ft
5 / 8 km
1000 / 3000 ft
1500m / 5 km
500 / 1000 ft
800 / 1500m
200 / 500 ft
< 800m
< 200 ft
Simboli :   Temporali  Nebbia  Neve Forte  Precipitazioni Forti  Vento > 20 kt
SIGMETs :   Varie  Temporali  Ghiacco  Turbolenza  Onda orograficha  Ceneri Vulcaniche







- Altitudine del aeroporto : 87 ft
- Codice IATA : FSC
- Carte del aeroporto


LFKF - Figari

ULTIMO METAR :
  • 222300Z AUTO 23012KT 9999 FEW022 BKN031 15/12 Q1017

METARs OBSOLETI :
  • 222230Z AUTO 23008KT 9999 FEW021 SCT030 15/12 Q1017
  • 222200Z AUTO 23007KT 9999 FEW018 SCT028 14/12 Q1017
  • 222130Z AUTO 21004KT 180V240 CAVOK 14/11 Q1017 TEMPO BKN012 BECMG 24015KT
  • 222100Z AUTO 25006KT 220V300 9999 FEW019 15/12 Q1017 TEMPO BKN012
  • 222030Z AUTO 28003KT 200V340 9999 FEW018 15/12 Q1017 TEMPO BKN012 BECMG 24015KT

TAF TAF LFKF
Valido dal 22 a 15 ore il 23 a 15 ore UTC


221400Z 2215/2315 24015KT CAVOK
PROB40
TEMPO 2222/2308 BKN012
BECMG 2312/2313 NSC
Nessun NOTAM noto per questo aeroporto.



MetMap, La meteo Aeronautica in un colpo d'occhio ! - Copyright ORBIFLY Dicembre 2007 - Disclaimer

ORBIFLY MET'MAP TEAM :

Programmazione e sviluppo : Alexandra Zaïnal
Concezione e sviluppo : Baudouin d'Aumeries
Co-Programmazione e sviluppo : Marc-Olivier Méhu
Supporto tecnico e logistico : Manuel Goepfert
Aiuto per la traduzione : Arnaldo La Scala

Contatto : metmap@orbifly.com




FONTI E CREDITI :

   NOAA